createdAt,value
2018-10-18T00:00:23.725Z,66.20
2018-10-18T00:01:27.125Z,66.17
2018-10-18T00:02:30.523Z,66.33
2018-10-18T00:03:33.969Z,66.25
2018-10-18T00:04:37.364Z,66.43
2018-10-18T00:05:40.756Z,66.24
2018-10-18T00:06:44.207Z,66.19
2018-10-18T00:07:47.647Z,66.48
2018-10-18T00:08:51.175Z,66.12
2018-10-18T00:09:54.623Z,66.43
2018-10-18T00:10:58.120Z,66.23
2018-10-18T00:12:01.564Z,66.42
2018-10-18T00:13:05.020Z,66.13
2018-10-18T00:14:08.506Z,66.15
2018-10-18T00:15:12.039Z,66.21
2018-10-18T00:16:15.414Z,66.50
2018-10-18T00:17:24.227Z,66.58
2018-10-18T00:18:27.597Z,66.42
2018-10-18T00:19:31.034Z,66.69
2018-10-18T00:20:34.481Z,66.53
2018-10-18T00:21:37.928Z,66.50
2018-10-18T00:22:41.489Z,66.54
2018-10-18T00:23:44.900Z,66.41
2018-10-18T00:24:48.328Z,66.37
2018-10-18T00:25:51.768Z,66.37
2018-10-18T00:26:55.159Z,66.36
2018-10-18T00:27:58.589Z,66.39
2018-10-18T00:29:02.031Z,66.54
2018-10-18T00:30:07.852Z,66.56
2018-10-18T00:31:11.202Z,66.68
2018-10-18T00:32:14.616Z,66.61
2018-10-18T00:33:18.029Z,66.66
2018-10-18T00:34:21.430Z,66.51
2018-10-18T00:35:24.859Z,66.27
2018-10-18T00:36:28.337Z,66.55
2018-10-18T00:37:31.714Z,66.80
2018-10-18T00:38:35.122Z,66.57
2018-10-18T00:39:38.528Z,66.32
2018-10-18T00:40:41.970Z,66.61
2018-10-18T00:41:45.397Z,66.43
2018-10-18T00:42:48.846Z,66.64
2018-10-18T00:43:52.229Z,66.72
2018-10-18T00:44:55.696Z,66.49
2018-10-18T00:45:59.088Z,66.71
2018-10-18T00:47:02.533Z,66.51
2018-10-18T00:48:06.025Z,66.67
2018-10-18T00:49:09.509Z,66.54
2018-10-18T00:50:13.049Z,66.57
2018-10-18T00:51:16.422Z,66.74
2018-10-18T00:52:20.193Z,67.10
2018-10-18T00:53:23.693Z,66.72
2018-10-18T00:54:27.209Z,66.78
2018-10-18T00:55:30.932Z,67.00
2018-10-18T00:56:34.298Z,66.92
2018-10-18T00:57:37.837Z,67.28
2018-10-18T00:58:41.352Z,66.75
2018-10-18T00:59:44.745Z,66.76
2018-10-18T01:00:48.164Z,66.69
2018-10-18T01:01:51.561Z,66.90
2018-10-18T01:02:54.995Z,66.86
2018-10-18T01:03:58.491Z,66.82
2018-10-18T01:05:01.972Z,66.88
2018-10-18T01:06:05.616Z,67.10
2018-10-18T01:07:09.104Z,67.01
2018-10-18T01:08:12.620Z,66.88
2018-10-18T01:09:16.017Z,66.74
2018-10-18T01:10:19.443Z,66.77
2018-10-18T01:11:22.866Z,66.72
2018-10-18T01:12:27.045Z,66.90
2018-10-18T01:13:30.423Z,66.89
2018-10-18T01:14:33.807Z,66.93
2018-10-18T01:15:37.196Z,66.80
2018-10-18T01:16:40.812Z,67.02
2018-10-18T01:17:44.246Z,66.74
2018-10-18T01:18:47.661Z,66.80
2018-10-18T01:19:51.085Z,66.79
2018-10-18T01:20:54.555Z,66.78
2018-10-18T01:21:57.992Z,66.87
2018-10-18T01:23:01.407Z,67.07
2018-10-18T01:24:05.248Z,67.33
2018-10-18T01:25:08.620Z,67.27
2018-10-18T01:26:12.091Z,66.95
2018-10-18T01:27:15.434Z,67.13
2018-10-18T01:28:19.047Z,67.00
2018-10-18T01:29:22.474Z,67.02
2018-10-18T01:30:25.910Z,67.16
2018-10-18T01:31:29.550Z,67.25
2018-10-18T01:32:32.980Z,67.26
2018-10-18T01:33:36.380Z,67.15
2018-10-18T01:34:40.199Z,66.82
2018-10-18T01:35:43.632Z,67.21
2018-10-18T01:36:47.034Z,66.69
2018-10-18T01:37:50.457Z,66.97
2018-10-18T01:38:53.954Z,66.91
2018-10-18T01:39:57.412Z,67.27
2018-10-18T01:41:00.814Z,66.92
2018-10-18T01:42:04.248Z,66.91
2018-10-18T01:43:07.678Z,67.08
2018-10-18T01:44:11.435Z,67.00
2018-10-18T01:45:14.810Z,66.89
2018-10-18T01:46:18.226Z,67.13
2018-10-18T01:47:21.637Z,66.99
2018-10-18T01:48:25.061Z,67.13
2018-10-18T01:49:28.580Z,66.90
2018-10-18T01:50:32.034Z,66.97
2018-10-18T01:51:35.699Z,67.04
2018-10-18T01:52:39.178Z,66.88
2018-10-18T01:53:42.567Z,67.01
2018-10-18T01:54:45.952Z,67.23
2018-10-18T01:55:49.358Z,66.90
2018-10-18T01:56:52.806Z,67.05
2018-10-18T01:57:56.263Z,66.87
2018-10-18T01:59:00.044Z,66.85
2018-10-18T02:00:03.576Z,66.94
2018-10-18T02:01:06.904Z,66.88
2018-10-18T02:02:10.453Z,66.89
2018-10-18T02:03:13.831Z,66.96
2018-10-18T02:04:17.237Z,66.89
2018-10-18T02:05:20.639Z,66.64
2018-10-18T02:06:24.124Z,66.95
2018-10-18T02:07:27.549Z,66.83
2018-10-18T02:08:30.953Z,66.77
2018-10-18T02:09:34.347Z,67.15
2018-10-18T02:10:37.838Z,66.99
2018-10-18T02:11:42.069Z,67.24
2018-10-18T02:12:45.480Z,67.30
2018-10-18T02:13:48.934Z,67.30
2018-10-18T02:14:52.298Z,67.30
2018-10-18T02:15:55.726Z,67.35
2018-10-18T02:16:59.176Z,67.21
2018-10-18T02:18:02.641Z,67.16
2018-10-18T02:19:06.361Z,66.95
2018-10-18T02:20:10.732Z,67.21
2018-10-18T02:21:14.313Z,67.32
2018-10-18T02:22:17.793Z,67.27
2018-10-18T02:23:21.409Z,67.18
2018-10-18T02:24:24.842Z,67.20
2018-10-18T02:25:28.256Z,67.23
2018-10-18T02:26:31.651Z,67.10
2018-10-18T02:27:35.091Z,67.33
2018-10-18T02:28:39.432Z,67.49
2018-10-18T02:29:42.963Z,67.12
2018-10-18T02:30:46.405Z,67.24
2018-10-18T02:31:49.814Z,67.33
2018-10-18T02:32:53.245Z,67.17
2018-10-18T02:33:56.747Z,67.30
2018-10-18T02:35:00.205Z,67.27
2018-10-18T02:36:03.674Z,66.98
2018-10-18T02:37:07.099Z,67.19
2018-10-18T02:38:10.505Z,67.05
2018-10-18T02:39:13.891Z,67.10
2018-10-18T02:40:17.263Z,67.21
2018-10-18T02:41:20.651Z,66.72
2018-10-18T02:42:24.083Z,67.02
2018-10-18T02:43:27.603Z,67.12
2018-10-18T02:44:31.046Z,67.04
2018-10-18T02:45:34.707Z,66.67
2018-10-18T02:46:38.101Z,66.90
2018-10-18T02:47:41.519Z,66.84
2018-10-18T02:48:44.939Z,66.99
2018-10-18T02:49:48.320Z,67.21
2018-10-18T02:50:51.718Z,67.03
2018-10-18T02:51:55.481Z,67.00
2018-10-18T02:52:59.087Z,67.10
2018-10-18T02:54:02.511Z,67.08
2018-10-18T02:55:06.235Z,67.19
2018-10-18T02:56:09.813Z,67.01
2018-10-18T02:57:13.263Z,67.03
2018-10-18T02:58:16.657Z,66.97
2018-10-18T02:59:20.018Z,67.04
2018-10-18T03:00:23.437Z,67.00
2018-10-18T03:01:26.850Z,66.87
2018-10-18T03:02:30.265Z,67.00
2018-10-18T03:03:33.670Z,67.21
2018-10-18T03:04:37.064Z,66.99
2018-10-18T03:05:40.439Z,66.87
2018-10-18T03:06:43.824Z,66.94
2018-10-18T03:07:47.250Z,67.03
2018-10-18T03:08:50.657Z,67.11
2018-10-18T03:09:54.133Z,67.09
2018-10-18T03:10:57.533Z,67.11
2018-10-18T03:12:01.061Z,67.13
2018-10-18T03:13:05.661Z,67.02
2018-10-18T03:14:09.984Z,67.34
2018-10-18T03:15:13.377Z,67.15
2018-10-18T03:16:16.762Z,67.14
2018-10-18T03:17:20.190Z,67.07
2018-10-18T03:18:23.642Z,67.01
2018-10-18T03:19:27.088Z,67.23
2018-10-18T03:20:30.494Z,67.20
2018-10-18T03:21:33.888Z,67.00
2018-10-18T03:22:37.291Z,67.18
2018-10-18T03:23:40.731Z,67.16
2018-10-18T03:24:44.094Z,67.34
2018-10-18T03:25:47.481Z,67.33
2018-10-18T03:26:50.900Z,66.97
2018-10-18T03:27:54.273Z,67.25
2018-10-18T03:28:57.707Z,67.31
2018-10-18T03:30:01.155Z,67.50
2018-10-18T03:31:04.810Z,67.50
2018-10-18T03:32:08.207Z,67.64
2018-10-18T03:33:11.626Z,67.53
2018-10-18T03:34:15.192Z,67.59
2018-10-18T03:35:18.621Z,67.33
2018-10-18T03:36:22.057Z,67.54
2018-10-18T03:37:25.418Z,67.05
2018-10-18T03:38:28.833Z,67.24
2018-10-18T03:39:32.234Z,66.90
2018-10-18T03:40:35.632Z,66.98
2018-10-18T03:41:39.096Z,67.00
2018-10-18T03:42:42.503Z,67.13
2018-10-18T03:43:45.870Z,67.15
2018-10-18T03:44:49.325Z,66.99
2018-10-18T03:45:52.853Z,66.96
2018-10-18T03:46:56.226Z,67.09
2018-10-18T03:48:00.261Z,66.92
2018-10-18T03:49:04.643Z,67.15
2018-10-18T03:50:08.337Z,67.63
2018-10-18T03:51:11.754Z,67.26
2018-10-18T03:52:15.161Z,67.56
2018-10-18T03:53:18.565Z,67.38
2018-10-18T03:54:21.977Z,67.37
2018-10-18T03:55:25.398Z,67.57
2018-10-18T03:56:28.797Z,67.61
2018-10-18T03:57:32.240Z,67.39
2018-10-18T03:58:35.629Z,67.74
2018-10-18T03:59:39.221Z,67.94
2018-10-18T04:00:42.556Z,67.84
2018-10-18T04:01:46.024Z,67.33
2018-10-18T04:02:49.426Z,67.42
2018-10-18T04:03:52.797Z,67.29
2018-10-18T04:04:56.272Z,67.13
2018-10-18T04:05:59.784Z,67.30
2018-10-18T04:07:03.176Z,67.26
2018-10-18T04:08:06.961Z,67.35
2018-10-18T04:09:11.063Z,67.49
2018-10-18T04:10:14.483Z,67.04
2018-10-18T04:11:17.912Z,67.10
2018-10-18T04:12:21.456Z,67.35
2018-10-18T04:13:24.960Z,67.08
2018-10-18T04:14:28.297Z,67.36
2018-10-18T04:15:31.824Z,67.21
2018-10-18T04:16:35.220Z,67.41
2018-10-18T04:17:38.584Z,67.51
2018-10-18T04:18:42.081Z,67.74
2018-10-18T04:19:45.493Z,67.89
2018-10-18T04:20:48.954Z,67.61
2018-10-18T04:21:52.394Z,68.00
2018-10-18T04:22:55.931Z,67.74
2018-10-18T04:23:59.386Z,67.93
2018-10-18T04:25:02.748Z,67.82
2018-10-18T04:26:06.170Z,67.64
2018-10-18T04:27:09.550Z,67.68
2018-10-18T04:28:12.914Z,67.72
2018-10-18T04:29:16.331Z,67.89
2018-10-18T04:30:20.095Z,67.77
2018-10-18T04:31:23.577Z,67.60
2018-10-18T04:32:27.050Z,67.76
2018-10-18T04:33:30.645Z,67.62
2018-10-18T04:34:34.038Z,67.42
2018-10-18T04:35:37.480Z,67.49
2018-10-18T04:36:40.907Z,67.72
2018-10-18T04:37:44.298Z,68.07
2018-10-18T04:38:47.705Z,67.93
2018-10-18T04:39:51.119Z,68.07
2018-10-18T04:40:54.546Z,68.00
2018-10-18T04:41:58.163Z,67.74
2018-10-18T04:43:01.616Z,67.81
2018-10-18T04:44:05.159Z,67.45
2018-10-18T04:45:09.152Z,67.48
2018-10-18T04:46:12.630Z,67.59
2018-10-18T04:47:16.485Z,67.25
2018-10-18T04:48:19.976Z,66.73
2018-10-18T04:49:23.341Z,66.82
2018-10-18T04:50:26.796Z,66.01
2018-10-18T04:51:30.221Z,64.97
2018-10-18T04:52:33.740Z,64.58
2018-10-18T04:53:37.140Z,64.36
2018-10-18T04:54:41.102Z,64.17
2018-10-18T04:55:44.505Z,64.50
2018-10-18T04:56:48.678Z,64.23
2018-10-18T04:57:52.135Z,63.82
2018-10-18T04:58:55.829Z,64.00
2018-10-18T04:59:59.244Z,64.09
2018-10-18T05:01:02.736Z,64.10
2018-10-18T05:02:06.527Z,64.21
2018-10-18T05:03:10.943Z,64.12
2018-10-18T05:04:14.557Z,63.76
2018-10-18T05:05:29.292Z,63.52
2018-10-18T05:06:32.704Z,65.13
2018-10-18T05:07:36.133Z,64.69
2018-10-18T05:08:39.526Z,65.11
2018-10-18T05:09:42.926Z,64.97
2018-10-18T05:10:46.392Z,65.28
2018-10-18T05:11:49.790Z,65.16
2018-10-18T05:12:53.242Z,65.01
2018-10-18T05:13:56.680Z,65.08
2018-10-18T05:15:00.139Z,65.29
2018-10-18T05:16:03.669Z,64.86
2018-10-18T05:17:07.274Z,65.11
2018-10-18T05:18:10.875Z,65.15
2018-10-18T05:19:14.335Z,65.42
2018-10-18T05:20:17.722Z,65.36
2018-10-18T05:21:21.218Z,65.19
2018-10-18T05:22:24.668Z,65.11
2018-10-18T05:23:28.057Z,65.31
2018-10-18T05:24:31.712Z,65.46
2018-10-18T05:25:35.338Z,64.97
2018-10-18T05:26:38.736Z,65.37
2018-10-18T05:27:42.220Z,65.13
2018-10-18T05:28:45.693Z,65.08
2018-10-18T05:29:49.096Z,64.73
2018-10-18T05:30:52.574Z,64.23
2018-10-18T05:31:55.931Z,64.18
2018-10-18T05:32:59.352Z,63.83
2018-10-18T05:34:02.800Z,64.08
2018-10-18T05:35:06.570Z,63.30
2018-10-18T05:36:09.999Z,63.56
2018-10-18T05:37:13.463Z,63.60
2018-10-18T05:38:16.814Z,63.38
2018-10-18T05:39:20.233Z,63.23
2018-10-18T05:40:23.698Z,62.65
2018-10-18T05:41:27.136Z,62.68
2018-10-18T05:42:30.534Z,63.47
2018-10-18T05:43:33.915Z,63.90
2018-10-18T05:44:37.353Z,64.17
2018-10-18T05:45:40.806Z,64.07
2018-10-18T05:46:44.391Z,64.20
2018-10-18T05:47:49.063Z,64.10
2018-10-18T05:48:52.448Z,64.32
2018-10-18T05:49:55.919Z,64.09
2018-10-18T05:50:59.344Z,63.77
2018-10-18T05:52:02.735Z,63.57
2018-10-18T05:53:06.261Z,63.76
2018-10-18T05:54:09.661Z,63.45
2018-10-18T05:55:13.501Z,63.36
2018-10-18T05:56:16.891Z,63.21
2018-10-18T05:57:20.293Z,63.21
2018-10-18T05:58:23.716Z,62.86
2018-10-18T05:59:27.177Z,63.03
2018-10-18T06:00:30.633Z,62.60
2018-10-18T06:01:34.023Z,60.93
2018-10-18T06:02:37.736Z,60.81
2018-10-18T06:03:41.155Z,60.10
2018-10-18T06:04:44.896Z,60.10
2018-10-18T06:05:48.380Z,60.17
2018-10-18T06:06:52.020Z,60.33
2018-10-18T06:07:55.624Z,60.35
2018-10-18T06:08:59.844Z,60.64
2018-10-18T06:10:03.419Z,60.71
2018-10-18T06:11:18.093Z,61.11
2018-10-18T06:12:21.504Z,60.84
2018-10-18T06:13:25.291Z,61.04
2018-10-18T06:14:29.498Z,61.03
2018-10-18T06:15:32.956Z,60.90
2018-10-18T06:16:36.512Z,61.29
2018-10-18T06:17:40.555Z,61.51
2018-10-18T06:18:44.183Z,61.24
2018-10-18T06:19:47.639Z,61.32
2018-10-18T06:20:51.045Z,61.38
2018-10-18T06:21:54.847Z,61.50
2018-10-18T06:22:58.437Z,61.24
2018-10-18T06:24:01.736Z,61.74
2018-10-18T06:25:06.268Z,61.41
2018-10-18T06:26:09.670Z,61.50
2018-10-18T06:27:13.084Z,61.46
2018-10-18T06:28:16.734Z,61.70
2018-10-18T06:29:20.173Z,61.88
2018-10-18T06:30:23.895Z,61.75
2018-10-18T06:31:28.192Z,61.88
2018-10-18T06:32:31.643Z,61.72
2018-10-18T06:33:35.050Z,61.90
2018-10-18T06:34:38.465Z,61.83
2018-10-18T06:35:41.931Z,61.62
2018-10-18T06:36:45.359Z,61.85
2018-10-18T06:37:48.801Z,61.83
2018-10-18T06:38:52.183Z,61.97
2018-10-18T06:39:55.647Z,61.99
2018-10-18T06:40:59.070Z,61.83
2018-10-18T06:42:02.553Z,62.11
2018-10-18T06:43:05.997Z,62.04
2018-10-18T06:44:09.460Z,62.03
2018-10-18T06:45:16.361Z,62.08
2018-10-18T06:46:19.762Z,62.01
2018-10-18T06:47:23.374Z,62.27
2018-10-18T06:48:26.774Z,61.78
2018-10-18T06:49:30.317Z,62.09
2018-10-18T06:50:33.748Z,62.17
2018-10-18T06:51:37.208Z,62.17
2018-10-18T06:52:40.852Z,62.01
2018-10-18T06:53:44.229Z,62.20
2018-10-18T06:54:47.685Z,62.26
2018-10-18T06:55:51.075Z,62.15
2018-10-18T06:56:54.464Z,62.39
2018-10-18T06:57:57.937Z,62.43
2018-10-18T06:59:01.325Z,62.37
2018-10-18T07:00:05.865Z,62.41
2018-10-18T07:01:09.275Z,62.18
2018-10-18T07:02:12.664Z,62.31
2018-10-18T07:03:16.142Z,62.30
2018-10-18T07:04:19.574Z,62.07
2018-10-18T07:05:23.103Z,62.53
2018-10-18T07:06:26.743Z,62.14
2018-10-18T07:07:30.265Z,62.29
2018-10-18T07:08:33.664Z,62.32
2018-10-18T07:09:37.077Z,62.42
2018-10-18T07:10:40.519Z,62.36
2018-10-18T07:11:43.961Z,62.54
2018-10-18T07:12:47.390Z,62.54
2018-10-18T07:13:50.951Z,62.46
2018-10-18T07:14:54.332Z,62.34
2018-10-18T07:15:57.753Z,62.46
2018-10-18T07:17:01.189Z,62.55
2018-10-18T07:18:04.991Z,62.61
2018-10-18T07:19:08.415Z,62.58
2018-10-18T07:20:12.891Z,62.40
2018-10-18T07:21:16.314Z,62.45
2018-10-18T07:22:19.754Z,62.41
2018-10-18T07:23:23.173Z,62.57
2018-10-18T07:24:26.613Z,62.44
2018-10-18T07:25:30.106Z,62.35
2018-10-18T07:26:33.498Z,62.32
2018-10-18T07:27:37.330Z,62.48
2018-10-18T07:28:40.781Z,62.55
2018-10-18T07:29:44.269Z,62.42
2018-10-18T07:30:47.687Z,62.71
2018-10-18T07:31:51.074Z,62.44
2018-10-18T07:32:54.535Z,62.56
2018-10-18T07:33:57.955Z,62.61
2018-10-18T07:35:01.667Z,62.51
2018-10-18T07:36:05.127Z,62.53
2018-10-18T07:37:08.559Z,62.38
2018-10-18T07:38:12.002Z,62.67
2018-10-18T07:39:15.679Z,62.53
2018-10-18T07:40:19.128Z,62.73
2018-10-18T07:41:22.680Z,62.65
2018-10-18T07:42:26.076Z,62.64
2018-10-18T07:43:29.519Z,62.53
2018-10-18T07:44:32.952Z,62.64
2018-10-18T07:45:36.429Z,62.47
2018-10-18T07:46:39.920Z,62.47
2018-10-18T07:47:43.940Z,62.18
2018-10-18T07:48:47.354Z,62.33
2018-10-18T07:49:50.888Z,62.39
2018-10-18T07:50:54.300Z,62.57
2018-10-18T07:51:57.745Z,62.46
2018-10-18T07:53:01.226Z,62.29
2018-10-18T07:54:04.689Z,62.34
2018-10-18T07:55:09.024Z,62.23
2018-10-18T07:56:12.494Z,62.35
2018-10-18T07:57:16.008Z,62.18
2018-10-18T07:58:19.489Z,62.48
2018-10-18T07:59:22.944Z,62.49
2018-10-18T08:00:26.486Z,62.24
2018-10-18T08:01:30.230Z,62.30
2018-10-18T08:02:33.828Z,62.20
2018-10-18T08:03:37.217Z,62.41
2018-10-18T08:04:40.618Z,62.34
2018-10-18T08:05:44.131Z,62.34
2018-10-18T08:06:47.558Z,62.44
2018-10-18T08:07:50.945Z,62.41
2018-10-18T08:08:54.374Z,62.31
2018-10-18T08:09:57.885Z,62.44
2018-10-18T08:11:01.403Z,62.47
2018-10-18T08:12:05.233Z,62.36
2018-10-18T08:13:08.806Z,62.27
2018-10-18T08:14:12.139Z,62.45
2018-10-18T08:15:16.586Z,62.02
2018-10-18T08:16:20.049Z,62.31
2018-10-18T08:17:23.612Z,62.11
2018-10-18T08:18:26.970Z,62.18
2018-10-18T08:19:30.551Z,62.25
2018-10-18T08:20:33.956Z,62.36
2018-10-18T08:21:37.614Z,62.27
2018-10-18T08:22:41.728Z,62.28
2018-10-18T08:23:45.142Z,62.28
2018-10-18T08:24:48.608Z,62.19
2018-10-18T08:25:52.039Z,62.21
2018-10-18T08:26:55.465Z,62.23
2018-10-18T08:27:58.916Z,62.33
2018-10-18T08:29:02.404Z,62.17
2018-10-18T08:30:08.613Z,62.33
2018-10-18T08:31:12.126Z,62.09
2018-10-18T08:32:15.429Z,61.97
2018-10-18T08:33:18.834Z,61.97
2018-10-18T08:34:22.305Z,62.26
2018-10-18T08:35:25.858Z,61.78
2018-10-18T08:36:29.486Z,62.02
2018-10-18T08:37:33.218Z,62.16
2018-10-18T08:38:36.616Z,62.09
2018-10-18T08:39:40.148Z,61.65
2018-10-18T08:40:43.620Z,62.16
2018-10-18T08:41:47.088Z,62.05
2018-10-18T08:42:50.521Z,61.91
2018-10-18T08:43:54.032Z,61.94
2018-10-18T08:44:57.493Z,62.10
2018-10-18T08:46:00.940Z,61.92
2018-10-18T08:47:04.546Z,61.88
2018-10-18T08:48:08.360Z,62.14
2018-10-18T08:49:11.876Z,62.08
2018-10-18T08:50:15.250Z,62.08
2018-10-18T08:51:18.628Z,62.07
2018-10-18T08:52:22.035Z,62.04
2018-10-18T08:53:25.570Z,62.19
2018-10-18T08:54:29.066Z,62.09
2018-10-18T08:55:32.539Z,62.30
2018-10-18T08:56:36.062Z,62.08
2018-10-18T08:57:39.656Z,62.29
2018-10-18T08:58:43.171Z,62.52
2018-10-18T08:59:46.652Z,62.09
2018-10-18T09:00:50.060Z,61.95
2018-10-18T09:01:53.457Z,62.13
2018-10-18T09:02:57.026Z,62.41
2018-10-18T09:04:00.717Z,62.20
2018-10-18T09:05:04.203Z,62.24
2018-10-18T09:06:07.609Z,62.41
2018-10-18T09:07:11.066Z,62.23
2018-10-18T09:08:14.529Z,62.57
2018-10-18T09:09:18.832Z,62.27
2018-10-18T09:10:22.303Z,62.33
2018-10-18T09:11:25.785Z,62.27
2018-10-18T09:12:29.234Z,62.12
2018-10-18T09:13:32.740Z,62.09
2018-10-18T09:14:36.390Z,62.10
2018-10-18T09:15:39.837Z,62.21
2018-10-18T09:16:43.477Z,62.19
2018-10-18T09:17:46.974Z,62.10
2018-10-18T09:18:50.463Z,62.13
2018-10-18T09:19:53.934Z,62.30
2018-10-18T09:20:57.339Z,62.16
2018-10-18T09:22:00.741Z,62.29
2018-10-18T09:23:04.164Z,62.22
2018-10-18T09:24:08.010Z,62.29
2018-10-18T09:25:12.079Z,62.29
2018-10-18T09:26:15.356Z,62.22
2018-10-18T09:27:18.741Z,62.22
2018-10-18T09:28:23.005Z,62.01
2018-10-18T09:29:26.735Z,62.43
2018-10-18T09:30:30.268Z,62.51
2018-10-18T09:31:33.739Z,62.63
2018-10-18T09:32:37.205Z,62.20
2018-10-18T09:33:40.720Z,62.65
2018-10-18T09:34:44.333Z,62.49
2018-10-18T09:35:47.787Z,61.99
2018-10-18T09:36:51.396Z,62.39
2018-10-18T09:37:54.826Z,62.27
2018-10-18T09:38:58.407Z,62.16
2018-10-18T09:40:01.829Z,62.60
2018-10-18T09:41:05.352Z,61.92
2018-10-18T09:42:08.802Z,62.15
2018-10-18T09:43:12.528Z,62.28
2018-10-18T09:44:15.983Z,62.53
2018-10-18T09:45:19.360Z,62.07
2018-10-18T09:46:22.782Z,62.19
2018-10-18T09:47:26.569Z,62.47
2018-10-18T09:48:29.977Z,62.33
2018-10-18T09:49:33.327Z,62.19
2018-10-18T09:50:36.747Z,62.12
2018-10-18T09:51:40.180Z,62.30
2018-10-18T09:52:43.605Z,62.04
2018-10-18T09:53:46.960Z,62.40
2018-10-18T09:54:50.431Z,62.41
2018-10-18T09:55:53.876Z,62.42
2018-10-18T09:56:57.342Z,62.39
2018-10-18T09:58:00.789Z,62.25
2018-10-18T09:59:04.259Z,62.43
2018-10-18T10:00:12.169Z,62.69
2018-10-18T10:01:20.793Z,62.21
2018-10-18T10:02:29.554Z,62.45
2018-10-18T10:03:33.022Z,62.24
2018-10-18T10:04:36.425Z,62.34
2018-10-18T10:05:40.081Z,62.64
2018-10-18T10:06:43.576Z,62.49
2018-10-18T10:07:47.180Z,62.29
2018-10-18T10:08:50.584Z,62.28
2018-10-18T10:09:54.071Z,62.33
2018-10-18T10:10:57.473Z,62.50
2018-10-18T10:12:00.920Z,62.38
2018-10-18T10:13:04.409Z,62.28
2018-10-18T10:14:07.914Z,62.07
2018-10-18T10:15:11.301Z,62.26
2018-10-18T10:16:15.687Z,62.10
2018-10-18T10:17:19.150Z,62.27
2018-10-18T10:18:25.479Z,62.28
2018-10-18T10:19:28.933Z,62.25
2018-10-18T10:20:32.510Z,62.49
2018-10-18T10:21:35.894Z,61.96
2018-10-18T10:22:39.307Z,62.24
2018-10-18T10:23:42.757Z,62.16
2018-10-18T10:24:46.264Z,62.09
2018-10-18T10:25:49.663Z,62.21
2018-10-18T10:26:53.525Z,62.30
2018-10-18T10:27:57.374Z,62.19
2018-10-18T10:29:00.787Z,62.18
2018-10-18T10:30:04.456Z,62.01
2018-10-18T10:31:08.399Z,62.09
2018-10-18T10:32:11.741Z,62.03
2018-10-18T10:33:15.408Z,62.12
2018-10-18T10:34:18.795Z,61.97
2018-10-18T10:35:22.169Z,61.91
2018-10-18T10:36:25.685Z,61.91
2018-10-18T10:37:29.082Z,61.88
2018-10-18T10:38:32.539Z,61.83
2018-10-18T10:39:35.956Z,61.72
2018-10-18T10:40:39.347Z,61.92
2018-10-18T10:41:42.749Z,61.50
2018-10-18T10:42:46.182Z,61.88
2018-10-18T10:43:49.644Z,61.58
2018-10-18T10:44:53.099Z,60.91
2018-10-18T10:45:56.639Z,60.11
2018-10-18T10:47:00.095Z,60.50
2018-10-18T10:48:03.671Z,60.65
2018-10-18T10:49:07.377Z,60.19
2018-10-18T10:50:10.851Z,60.76
2018-10-18T10:51:14.539Z,60.61
2018-10-18T10:52:18.285Z,60.60
2018-10-18T10:53:21.771Z,60.19
2018-10-18T10:54:25.284Z,60.47
2018-10-18T10:55:28.731Z,60.18
2018-10-18T10:56:32.150Z,60.13
2018-10-18T10:57:35.589Z,60.02
2018-10-18T10:58:39.067Z,60.03
2018-10-18T10:59:42.521Z,60.02
2018-10-18T11:01:18.894Z,59.92
2018-10-18T11:02:22.325Z,59.69
2018-10-18T11:03:25.775Z,59.53
2018-10-18T11:04:29.243Z,59.27
2018-10-18T11:05:32.664Z,59.48
2018-10-18T11:06:36.054Z,59.40
2018-10-18T11:07:39.523Z,59.57
2018-10-18T11:08:42.952Z,59.52
2018-10-18T11:09:46.593Z,59.82
2018-10-18T11:10:49.929Z,59.44
2018-10-18T11:11:53.402Z,58.74
2018-10-18T11:12:56.908Z,59.22
2018-10-18T11:14:00.599Z,59.43
2018-10-18T11:15:04.137Z,59.11
2018-10-18T11:16:07.863Z,58.86
2018-10-18T11:17:11.521Z,58.77
2018-10-18T11:18:14.983Z,58.78
2018-10-18T11:19:18.510Z,59.13
2018-10-18T11:20:22.014Z,58.63
2018-10-18T11:21:25.531Z,58.84
2018-10-18T11:22:28.961Z,59.24
2018-10-18T11:23:32.859Z,59.11
2018-10-18T11:24:36.482Z,59.02
2018-10-18T11:25:40.008Z,59.05
2018-10-18T11:26:43.444Z,59.07
2018-10-18T11:27:46.881Z,58.70
2018-10-18T11:28:50.297Z,58.62
2018-10-18T11:29:53.851Z,58.92
2018-10-18T11:30:57.447Z,59.11
2018-10-18T11:32:00.922Z,58.89
2018-10-18T11:33:04.565Z,58.40
2018-10-18T11:34:08.030Z,58.82
2018-10-18T11:35:11.587Z,58.25
2018-10-18T11:36:15.257Z,58.57
2018-10-18T11:37:18.678Z,58.16
2018-10-18T11:38:22.074Z,58.78
2018-10-18T11:39:25.552Z,57.67
2018-10-18T11:40:28.921Z,57.70
2018-10-18T11:41:32.379Z,57.25
2018-10-18T11:42:35.825Z,57.84
2018-10-18T11:43:39.261Z,57.75
2018-10-18T11:44:42.690Z,58.31
2018-10-18T11:45:46.092Z,57.78
2018-10-18T11:46:49.554Z,57.73
2018-10-18T11:47:52.986Z,57.79
2018-10-18T11:48:56.819Z,57.92
2018-10-18T11:50:01.538Z,57.88
2018-10-18T11:51:04.872Z,57.92
2018-10-18T11:52:08.414Z,57.98
2018-10-18T11:53:11.741Z,57.78
2018-10-18T11:54:15.253Z,57.85
2018-10-18T11:55:18.664Z,57.75
2018-10-18T11:56:22.068Z,57.51
2018-10-18T11:57:25.549Z,58.02
2018-10-18T11:58:28.962Z,57.80
2018-10-18T11:59:32.441Z,57.47
2018-10-18T12:00:35.822Z,57.39
2018-10-18T12:01:39.283Z,57.78
2018-10-18T12:02:42.894Z,57.63
2018-10-18T12:03:46.271Z,57.54
2018-10-18T12:04:49.716Z,57.42
2018-10-18T12:05:53.137Z,58.07
2018-10-18T12:06:56.677Z,58.04
2018-10-18T12:08:00.143Z,57.99
2018-10-18T12:09:04.781Z,58.09
2018-10-18T12:10:09.036Z,57.95
2018-10-18T12:11:12.661Z,57.76
2018-10-18T12:12:16.117Z,57.86
2018-10-18T12:13:19.579Z,57.74
2018-10-18T12:14:22.996Z,57.79
2018-10-18T12:15:26.577Z,58.13
2018-10-18T12:16:30.011Z,57.52
2018-10-18T12:17:33.592Z,57.41
2018-10-18T12:18:37.110Z,57.53
2018-10-18T12:19:40.660Z,57.41
2018-10-18T12:20:44.199Z,57.89
2018-10-18T12:21:47.633Z,57.85
2018-10-18T12:22:51.270Z,57.78
2018-10-18T12:23:54.730Z,57.99
2018-10-18T12:24:58.197Z,58.07
2018-10-18T12:26:01.875Z,57.87
2018-10-18T12:27:05.706Z,58.01
2018-10-18T12:28:09.175Z,57.86
2018-10-18T12:29:12.749Z,57.59
2018-10-18T12:30:16.383Z,57.64
2018-10-18T12:31:19.779Z,57.91
2018-10-18T12:32:23.260Z,57.75
2018-10-18T12:33:26.682Z,57.58
2018-10-18T12:34:30.126Z,57.70
2018-10-18T12:35:33.634Z,58.11
2018-10-18T12:36:37.153Z,57.51
2018-10-18T12:37:40.648Z,57.33
2018-10-18T12:38:45.492Z,57.72
2018-10-18T12:39:49.175Z,57.49
2018-10-18T12:40:52.682Z,57.74
2018-10-18T12:41:56.377Z,57.69
2018-10-18T12:43:01.223Z,58.14
2018-10-18T12:44:04.700Z,58.02
2018-10-18T12:45:09.848Z,57.93
2018-10-18T12:46:13.539Z,57.95
2018-10-18T12:47:17.058Z,58.11
2018-10-18T12:48:20.654Z,58.21
2018-10-18T12:49:23.976Z,58.13
2018-10-18T12:50:27.480Z,57.95
2018-10-18T12:51:30.957Z,58.03
2018-10-18T12:52:34.648Z,58.22
2018-10-18T12:53:38.120Z,58.32
2018-10-18T12:54:41.715Z,58.17
2018-10-18T12:55:45.112Z,58.62
2018-10-18T12:56:48.539Z,58.30
2018-10-18T12:57:52.048Z,58.30
2018-10-18T12:58:55.567Z,58.24
2018-10-18T12:59:59.290Z,58.73
2018-10-18T13:01:02.691Z,58.85
2018-10-18T13:02:06.465Z,58.23
2018-10-18T13:03:09.872Z,58.29
2018-10-18T13:04:13.322Z,58.74
2018-10-18T13:05:16.790Z,58.46
2018-10-18T13:06:20.211Z,58.66
2018-10-18T13:07:23.723Z,58.94
2018-10-18T13:08:27.141Z,59.04
2018-10-18T13:09:30.670Z,58.81
2018-10-18T13:10:34.168Z,59.24
2018-10-18T13:11:37.565Z,58.85
2018-10-18T13:12:41.426Z,58.94
2018-10-18T13:13:44.767Z,59.04
2018-10-18T13:14:48.240Z,59.05
2018-10-18T13:15:51.726Z,58.87
2018-10-18T13:16:55.245Z,59.49
2018-10-18T13:17:58.842Z,59.32
2018-10-18T13:19:02.316Z,59.19
2018-10-18T13:20:07.095Z,59.15
2018-10-18T13:21:10.486Z,58.87
2018-10-18T13:22:13.921Z,59.40
2018-10-18T13:23:17.433Z,59.26
2018-10-18T13:24:21.108Z,59.42
2018-10-18T13:25:24.641Z,59.39
2018-10-18T13:26:28.181Z,59.55
2018-10-18T13:27:31.772Z,59.23
2018-10-18T13:28:35.190Z,59.39
2018-10-18T13:29:38.585Z,59.72
2018-10-18T13:30:42.017Z,59.64
2018-10-18T13:31:45.571Z,59.71
2018-10-18T13:32:49.002Z,60.12
2018-10-18T13:33:52.442Z,59.58
2018-10-18T13:34:56.045Z,59.79
2018-10-18T13:35:59.615Z,59.45
2018-10-18T13:37:03.018Z,59.46
2018-10-18T13:38:06.523Z,59.81
2018-10-18T13:39:14.601Z,59.77